createdAt,value
2022-09-17T00:01:29.517Z,92815.03
2022-09-17T00:16:36.542Z,92776.88
2022-09-17T00:31:38.619Z,92762.66
2022-09-17T00:46:44.765Z,92783.81
2022-09-17T01:01:46.612Z,92792.94
2022-09-17T01:16:48.127Z,92777.19
2022-09-17T01:32:00.128Z,92773.47
2022-09-17T01:47:07.740Z,92726.47
2022-09-17T02:02:12.332Z,92762.66
2022-09-17T02:17:22.554Z,92659.31
2022-09-17T02:32:24.978Z,92616.34
2022-09-17T02:47:44.821Z,92664.47
2022-09-17T03:02:50.206Z,92615.56
2022-09-17T03:17:53.571Z,92613.44
2022-09-17T03:32:55.229Z,92611.13
2022-09-17T03:47:56.975Z,92595.75
2022-09-17T04:02:58.527Z,92609.31
2022-09-17T04:18:00.028Z,92644.38
2022-09-17T04:33:01.568Z,92726.59
2022-09-17T04:48:03.446Z,92734.75
2022-09-17T05:03:04.934Z,92749.06
2022-09-17T05:18:06.507Z,92739.66
2022-09-17T05:33:08.003Z,92722.25
2022-09-17T05:48:13.929Z,92756.16
2022-09-17T06:03:16.823Z,92752.94
2022-09-17T06:18:18.861Z,92757.47
2022-09-17T06:33:20.909Z,92856.41
2022-09-17T06:48:23.133Z,92814.09
2022-09-17T07:03:24.577Z,92796.84
2022-09-17T07:18:26.461Z,92716.56
2022-09-17T07:33:28.049Z,92736.63
2022-09-17T07:48:30.353Z,92722.75
2022-09-17T08:03:31.871Z,92717.84
2022-09-17T08:18:33.445Z,92709.47
2022-09-17T08:33:36.226Z,92714.50
2022-09-17T08:48:41.902Z,92700.38
2022-09-17T09:03:43.339Z,92689.50
2022-09-17T09:18:45.237Z,92722.81
2022-09-17T09:33:48.172Z,92762.72
2022-09-17T09:49:15.040Z,92780.13
2022-09-17T10:04:24.472Z,92740.81
2022-09-17T10:19:26.565Z,92642.47
2022-09-17T10:34:29.373Z,92639.81
2022-09-17T10:49:31.144Z,92584.19
2022-09-17T11:04:32.603Z,92587.78
2022-09-17T11:19:45.883Z,92625.25
2022-09-17T11:34:53.862Z,92618.78
2022-09-17T11:50:00.000Z,92617.47
2022-09-17T12:05:09.624Z,92591.50
2022-09-17T12:20:31.008Z,92576.22
2022-09-17T12:36:00.202Z,92575.00
2022-09-17T12:50:59.895Z,92551.69
2022-09-17T13:06:13.203Z,92520.56
2022-09-17T13:21:20.992Z,92536.88
2022-09-17T13:36:38.183Z,92520.19
2022-09-17T13:51:39.638Z,92451.69
2022-09-17T14:06:48.287Z,92438.22
2022-09-17T14:22:02.050Z,92433.16
2022-09-17T14:37:03.579Z,92447.91
2022-09-17T14:52:23.492Z,92419.66
2022-09-17T15:07:25.464Z,92392.41
2022-09-17T15:22:28.468Z,92365.28
2022-09-17T15:37:29.902Z,92370.59
2022-09-17T15:52:34.455Z,92363.94
2022-09-17T16:07:35.951Z,92331.03
2022-09-17T16:22:37.498Z,92336.88
2022-09-17T16:37:38.967Z,92308.41
2022-09-17T16:52:40.529Z,92282.31
2022-09-17T17:07:41.999Z,92265.91
2022-09-17T17:22:44.096Z,92304.84
2022-09-17T17:37:45.665Z,92313.56
2022-09-17T17:52:48.099Z,92354.81
2022-09-17T18:07:49.831Z,92358.00
2022-09-17T18:22:51.357Z,92369.56
2022-09-17T18:37:52.875Z,92362.38
2022-09-17T18:52:54.350Z,92351.03
2022-09-17T19:07:55.829Z,92374.88
2022-09-17T19:22:57.285Z,92348.94
2022-09-17T19:37:59.021Z,92343.31
2022-09-17T19:53:00.485Z,92330.56
2022-09-17T20:08:03.070Z,92315.03
2022-09-17T20:23:04.533Z,92288.63
2022-09-17T20:39:06.827Z,92292.84
2022-09-17T20:53:29.016Z,92288.84
2022-09-17T21:08:30.493Z,92257.31
2022-09-17T21:23:32.888Z,92295.09
2022-09-17T21:38:34.497Z,92269.38
2022-09-17T21:53:36.066Z,92269.88
2022-09-17T22:16:08.714Z,92310.72
2022-09-17T22:31:11.282Z,92270.81
2022-09-17T22:46:23.245Z,92289.81
2022-09-17T23:01:28.773Z,92288.09
2022-09-17T23:16:34.731Z,92301.50
2022-09-17T23:31:36.347Z,92319.19
2022-09-17T23:46:37.956Z,92310.97
